sensor_id;sensor_type;location;lat;lon;timestamp;temperature;humidity
52044;DHT22;38053;53.100;6.078;2023-12-20T00:11:06;5.60;99.90
52044;DHT22;38053;53.100;6.078;2023-12-20T00:23:53;5.60;99.90
52044;DHT22;38053;53.100;6.078;2023-12-20T00:26:18;5.50;99.90
52044;DHT22;38053;53.100;6.078;2023-12-20T00:28:47;5.50;99.90
52044;DHT22;38053;53.100;6.078;2023-12-20T00:34:30;5.40;99.90
52044;DHT22;38053;53.100;6.078;2023-12-20T00:37:24;5.30;99.90
52044;DHT22;38053;53.100;6.078;2023-12-20T00:40:13;5.30;99.90
52044;DHT22;38053;53.100;6.078;2023-12-20T00:43:03;5.30;99.90
52044;DHT22;38053;53.100;6.078;2023-12-20T00:45:32;5.30;99.90
52044;DHT22;38053;53.100;6.078;2023-12-20T00:48:09;5.20;99.90
52044;DHT22;38053;53.100;6.078;2023-12-20T00:51:05;5.20;99.90
52044;DHT22;38053;53.100;6.078;2023-12-20T00:53:41;5.20;99.90
52044;DHT22;38053;53.100;6.078;2023-12-20T00:56:32;5.10;99.90
52044;DHT22;38053;53.100;6.078;2023-12-20T00:59:17;5.20;99.90
52044;DHT22;38053;53.100;6.078;2023-12-20T01:01:56;5.20;99.90
52044;DHT22;38053;53.100;6.078;2023-12-20T01:08:44;5.20;99.90
52044;DHT22;38053;53.100;6.078;2023-12-20T01:11:25;5.20;99.90
52044;DHT22;38053;53.100;6.078;2023-12-20T01:13:50;5.30;99.90
52044;DHT22;38053;53.100;6.078;2023-12-20T01:16:19;5.30;99.90
52044;DHT22;38053;53.100;6.078;2023-12-20T01:18:47;5.30;99.90
52044;DHT22;38053;53.100;6.078;2023-12-20T01:28:46;5.40;99.90
52044;DHT22;38053;53.100;6.078;2023-12-20T01:31:30;5.30;99.90
52044;DHT22;38053;53.100;6.078;2023-12-20T01:33:56;5.40;99.90
52044;DHT22;38053;53.100;6.078;2023-12-20T01:36:45;5.40;99.90
52044;DHT22;38053;53.100;6.078;2023-12-20T01:39:13;5.40;99.90
52044;DHT22;38053;53.100;6.078;2023-12-20T01:41:39;5.40;99.90
52044;DHT22;38053;53.100;6.078;2023-12-20T01:44:08;5.40;99.90
52044;DHT22;38053;53.100;6.078;2023-12-20T01:47:14;5.50;99.90
52044;DHT22;38053;53.100;6.078;2023-12-20T01:50:00;5.50;99.90
52044;DHT22;38053;53.100;6.078;2023-12-20T01:52:32;5.50;99.90
52044;DHT22;38053;53.100;6.078;2023-12-20T01:55:05;5.50;99.90
52044;DHT22;38053;53.100;6.078;2023-12-20T01:58:07;5.60;99.90
52044;DHT22;38053;53.100;6.078;2023-12-20T02:03:56;5.60;99.90
52044;DHT22;38053;53.100;6.078;2023-12-20T02:06:34;5.70;99.90
52044;DHT22;38053;53.100;6.078;2023-12-20T02:09:20;5.80;99.90
52044;DHT22;38053;53.100;6.078;2023-12-20T02:14:43;5.90;99.90
52044;DHT22;38053;53.100;6.078;2023-12-20T02:17:09;5.90;99.90
52044;DHT22;38053;53.100;6.078;2023-12-20T02:23:21;5.90;99.90
52044;DHT22;38053;53.100;6.078;2023-12-20T02:25:47;5.90;99.90
52044;DHT22;38053;53.100;6.078;2023-12-20T02:28:42;5.90;99.90
52044;DHT22;38053;53.100;6.078;2023-12-20T02:31:27;6.00;99.90
52044;DHT22;38053;53.100;6.078;2023-12-20T02:44:50;6.00;99.90
52044;DHT22;38053;53.100;6.078;2023-12-20T02:47:48;6.00;99.90
52044;DHT22;38053;53.100;6.078;2023-12-20T02:50:14;5.90;99.90
52044;DHT22;38053;53.100;6.078;2023-12-20T02:53:09;6.00;99.90
52044;DHT22;38053;53.100;6.078;2023-12-20T02:55:40;5.90;99.90
52044;DHT22;38053;53.100;6.078;2023-12-20T03:05:42;5.80;99.90
52044;DHT22;38053;53.100;6.078;2023-12-20T03:08:08;5.90;99.90
52044;DHT22;38053;53.100;6.078;2023-12-20T03:14:02;6.00;99.90
52044;DHT22;38053;53.100;6.078;2023-12-20T03:16:56;6.00;99.90
52044;DHT22;38053;53.100;6.078;2023-12-20T03:19:31;5.90;99.90
52044;DHT22;38053;53.100;6.078;2023-12-20T03:29:00;6.10;99.90
52044;DHT22;38053;53.100;6.078;2023-12-20T03:38:38;6.10;99.90
52044;DHT22;38053;53.100;6.078;2023-12-20T03:41:32;6.10;99.90
52044;DHT22;38053;53.100;6.078;2023-12-20T03:48:27;6.10;99.90
52044;DHT22;38053;53.100;6.078;2023-12-20T03:57:49;6.20;99.90
52044;DHT22;38053;53.100;6.078;2023-12-20T04:00:24;6.20;99.90
52044;DHT22;38053;53.100;6.078;2023-12-20T04:03:01;6.30;99.90
52044;DHT22;38053;53.100;6.078;2023-12-20T04:09:09;6.30;99.90
52044;DHT22;38053;53.100;6.078;2023-12-20T04:15:27;6.40;99.90
52044;DHT22;38053;53.100;6.078;2023-12-20T04:17:53;6.40;99.90
52044;DHT22;38053;53.100;6.078;2023-12-20T04:20:34;6.40;99.90
52044;DHT22;38053;53.100;6.078;2023-12-20T04:23:27;6.30;99.90
52044;DHT22;38053;53.100;6.078;2023-12-20T04:26:14;6.30;99.90
52044;DHT22;38053;53.100;6.078;2023-12-20T04:28:59;6.40;99.90
52044;DHT22;38053;53.100;6.078;2023-12-20T04:31:37;6.40;99.90
52044;DHT22;38053;53.100;6.078;2023-12-20T04:34:03;6.40;99.90
52044;DHT22;38053;53.100;6.078;2023-12-20T04:36:38;6.40;99.90
52044;DHT22;38053;53.100;6.078;2023-12-20T04:39:06;6.50;99.90
52044;DHT22;38053;53.100;6.078;2023-12-20T04:41:38;6.50;99.90
52044;DHT22;38053;53.100;6.078;2023-12-20T04:44:47;6.50;99.90
52044;DHT22;38053;53.100;6.078;2023-12-20T04:47:44;6.50;99.90
52044;DHT22;38053;53.100;6.078;2023-12-20T05:02:17;6.60;99.90
52044;DHT22;38053;53.100;6.078;2023-12-20T05:04:42;6.60;99.90
52044;DHT22;38053;53.100;6.078;2023-12-20T05:07:08;6.60;99.90
52044;DHT22;38053;53.100;6.078;2023-12-20T05:09:54;6.70;99.90
52044;DHT22;38053;53.100;6.078;2023-12-20T05:12:38;6.60;99.90
52044;DHT22;38053;53.100;6.078;2023-12-20T05:16:05;6.70;99.90
52044;DHT22;38053;53.100;6.078;2023-12-20T05:18:18;6.70;99.90
52044;DHT22;38053;53.100;6.078;2023-12-20T05:20:57;6.70;99.90
52044;DHT22;38053;53.100;6.078;2023-12-20T05:24:04;6.70;99.90
52044;DHT22;38053;53.100;6.078;2023-12-20T05:26:35;6.70;99.90
52044;DHT22;38053;53.100;6.078;2023-12-20T05:29:42;6.70;99.90
52044;DHT22;38053;53.100;6.078;2023-12-20T05:32:30;6.70;99.90
52044;DHT22;38053;53.100;6.078;2023-12-20T05:34:58;6.70;99.90
52044;DHT22;38053;53.100;6.078;2023-12-20T05:37:50;6.80;99.90
52044;DHT22;38053;53.100;6.078;2023-12-20T05:40:42;6.70;99.90
52044;DHT22;38053;53.100;6.078;2023-12-20T05:43:07;6.80;99.90
52044;DHT22;38053;53.100;6.078;2023-12-20T05:45:56;6.80;99.90
52044;DHT22;38053;53.100;6.078;2023-12-20T05:48:58;6.80;99.90
52044;DHT22;38053;53.100;6.078;2023-12-20T05:51:23;6.80;99.90
52044;DHT22;38053;53.100;6.078;2023-12-20T05:57:50;6.90;99.90
52044;DHT22;38053;53.100;6.078;2023-12-20T06:00:24;6.90;99.90
52044;DHT22;38053;53.100;6.078;2023-12-20T06:02:50;7.00;99.90
52044;DHT22;38053;53.100;6.078;2023-12-20T06:05:16;7.00;99.90
52044;DHT22;38053;53.100;6.078;2023-12-20T06:08:06;7.00;99.90
52044;DHT22;38053;53.100;6.078;2023-12-20T06:10:35;7.00;99.90
52044;DHT22;38053;53.100;6.078;2023-12-20T06:13:09;7.10;99.90
52044;DHT22;38053;53.100;6.078;2023-12-20T06:15:41;7.10;99.90
52044;DHT22;38053;53.100;6.078;2023-12-20T06:18:10;7.10;99.90
52044;DHT22;38053;53.100;6.078;2023-12-20T06:23:23;7.20;99.90
52044;DHT22;38053;53.100;6.078;2023-12-20T06:26:02;7.20;99.90
52044;DHT22;38053;53.100;6.078;2023-12-20T06:28:49;7.20;99.90
52044;DHT22;38053;53.100;6.078;2023-12-20T06:31:15;7.20;99.90
52044;DHT22;38053;53.100;6.078;2023-12-20T06:37:21;7.20;99.90
52044;DHT22;38053;53.100;6.078;2023-12-20T06:39:46;7.30;99.90
52044;DHT22;38053;53.100;6.078;2023-12-20T06:42:13;7.30;99.90
52044;DHT22;38053;53.100;6.078;2023-12-20T06:44:47;7.30;99.90
52044;DHT22;38053;53.100;6.078;2023-12-20T06:47:18;7.30;99.90
52044;DHT22;38053;53.100;6.078;2023-12-20T06:50:06;7.30;99.90
52044;DHT22;38053;53.100;6.078;2023-12-20T06:52:42;7.30;99.90
52044;DHT22;38053;53.100;6.078;2023-12-20T06:58:28;7.30;99.90
52044;DHT22;38053;53.100;6.078;2023-12-20T07:01:05;7.40;99.90
52044;DHT22;38053;53.100;6.078;2023-12-20T07:03:40;7.30;99.90
52044;DHT22;38053;53.100;6.078;2023-12-20T07:06:08;7.40;99.90
52044;DHT22;38053;53.100;6.078;2023-12-20T07:08:42;7.40;99.90
52044;DHT22;38053;53.100;6.078;2023-12-20T07:11:08;7.40;99.90
52044;DHT22;38053;53.100;6.078;2023-12-20T07:13:42;7.40;99.90
52044;DHT22;38053;53.100;6.078;2023-12-20T07:16:08;7.40;99.90
52044;DHT22;38053;53.100;6.078;2023-12-20T07:18:40;7.50;99.90
52044;DHT22;38053;53.100;6.078;2023-12-20T07:21:11;7.40;99.90
52044;DHT22;38053;53.100;6.078;2023-12-20T07:24:22;7.40;99.90
52044;DHT22;38053;53.100;6.078;2023-12-20T07:26:51;7.40;99.90
52044;DHT22;38053;53.100;6.078;2023-12-20T07:29:26;7.40;99.90
52044;DHT22;38053;53.100;6.078;2023-12-20T07:32:06;7.30;99.90
52044;DHT22;38053;53.100;6.078;2023-12-20T07:34:35;7.30;99.90
52044;DHT22;38053;53.100;6.078;2023-12-20T07:37:22;7.30;99.90
52044;DHT22;38053;53.100;6.078;2023-12-20T07:39:51;7.30;99.90
52044;DHT22;38053;53.100;6.078;2023-12-20T07:42:27;7.30;99.90
52044;DHT22;38053;53.100;6.078;2023-12-20T07:48:39;7.40;99.90
52044;DHT22;38053;53.100;6.078;2023-12-20T07:51:25;7.40;99.90
52044;DHT22;38053;53.100;6.078;2023-12-20T07:54:00;7.40;99.90
52044;DHT22;38053;53.100;6.078;2023-12-20T08:02:54;7.50;99.90
52044;DHT22;38053;53.100;6.078;2023-12-20T08:09:24;7.50;99.90
52044;DHT22;38053;53.100;6.078;2023-12-20T08:15:29;7.30;99.90
52044;DHT22;38053;53.100;6.078;2023-12-20T08:18:21;7.10;99.90
52044;DHT22;38053;53.100;6.078;2023-12-20T08:20:50;6.90;99.90
52044;DHT22;38053;53.100;6.078;2023-12-20T08:23:33;6.70;99.90
52044;DHT22;38053;53.100;6.078;2023-12-20T08:26:34;6.60;99.90
52044;DHT22;38053;53.100;6.078;2023-12-20T08:32:37;6.60;99.90
52044;DHT22;38053;53.100;6.078;2023-12-20T08:35:20;6.60;99.90
52044;DHT22;38053;53.100;6.078;2023-12-20T08:37:54;6.70;99.90
52044;DHT22;38053;53.100;6.078;2023-12-20T08:40:25;6.70;99.90
52044;DHT22;38053;53.100;6.078;2023-12-20T08:43:12;6.80;99.90
52044;DHT22;38053;53.100;6.078;2023-12-20T08:46:25;6.90;99.90
52044;DHT22;38053;53.100;6.078;2023-12-20T08:52:52;7.00;99.90
52044;DHT22;38053;53.100;6.078;2023-12-20T08:55:41;7.10;99.90
52044;DHT22;38053;53.100;6.078;2023-12-20T08:58:16;7.10;99.90
52044;DHT22;38053;53.100;6.078;2023-12-20T09:01:21;7.10;99.90
52044;DHT22;38053;53.100;6.078;2023-12-20T09:04:14;7.20;99.90
52044;DHT22;38053;53.100;6.078;2023-12-20T09:06:40;7.20;99.90
52044;DHT22;38053;53.100;6.078;2023-12-20T09:09:12;7.30;99.90
52044;DHT22;38053;53.100;6.078;2023-12-20T09:11:55;7.30;99.90
52044;DHT22;38053;53.100;6.078;2023-12-20T09:14:23;7.30;99.90
52044;DHT22;38053;53.100;6.078;2023-12-20T09:20:31;6.60;99.90
52044;DHT22;38053;53.100;6.078;2023-12-20T09:23:46;6.40;99.90
52044;DHT22;38053;53.100;6.078;2023-12-20T09:26:18;6.20;99.90
52044;DHT22;38053;53.100;6.078;2023-12-20T09:28:57;6.10;99.90
52044;DHT22;38053;53.100;6.078;2023-12-20T09:56:03;5.80;99.90
52044;DHT22;38053;53.100;6.078;2023-12-20T10:01:43;5.90;99.90
52044;DHT22;38053;53.100;6.078;2023-12-20T10:05:09;5.90;99.90
52044;DHT22;38053;53.100;6.078;2023-12-20T10:07:49;6.00;99.90
52044;DHT22;38053;53.100;6.078;2023-12-20T10:11:29;6.00;99.90
52044;DHT22;38053;53.100;6.078;2023-12-20T10:14:02;6.00;99.90
52044;DHT22;38053;53.100;6.078;2023-12-20T10:17:01;6.00;99.90
52044;DHT22;38053;53.100;6.078;2023-12-20T10:20:36;6.10;99.90
52044;DHT22;38053;53.100;6.078;2023-12-20T10:30:35;6.40;99.90
52044;DHT22;38053;53.100;6.078;2023-12-20T10:33:35;6.40;99.90
52044;DHT22;38053;53.100;6.078;2023-12-20T10:36:06;6.50;99.90
52044;DHT22;38053;53.100;6.078;2023-12-20T10:38:39;6.50;99.90
52044;DHT22;38053;53.100;6.078;2023-12-20T10:41:34;6.50;99.90
52044;DHT22;38053;53.100;6.078;2023-12-20T10:44:13;6.60;99.90
52044;DHT22;38053;53.100;6.078;2023-12-20T10:46:48;6.60;99.90
52044;DHT22;38053;53.100;6.078;2023-12-20T10:50:29;6.60;99.90
52044;DHT22;38053;53.100;6.078;2023-12-20T10:52:47;6.60;99.90
52044;DHT22;38053;53.100;6.078;2023-12-20T10:56:15;6.60;99.90
52044;DHT22;38053;53.100;6.078;2023-12-20T10:58:45;6.60;99.90
52044;DHT22;38053;53.100;6.078;2023-12-20T11:01:21;6.60;99.90
52044;DHT22;38053;53.100;6.078;2023-12-20T11:04:23;6.70;99.90
52044;DHT22;38053;53.100;6.078;2023-12-20T11:14:06;6.80;99.90
52044;DHT22;38053;53.100;6.078;2023-12-20T11:17:39;6.80;99.90
52044;DHT22;38053;53.100;6.078;2023-12-20T11:20:35;6.90;99.90
52044;DHT22;38053;53.100;6.078;2023-12-20T11:23:24;6.90;99.90
52044;DHT22;38053;53.100;6.078;2023-12-20T11:25:52;7.00;99.90
52044;DHT22;38053;53.100;6.078;2023-12-20T11:28:45;7.00;99.90
52044;DHT22;38053;53.100;6.078;2023-12-20T11:38:01;7.30;99.90
52044;DHT22;38053;53.100;6.078;2023-12-20T11:40:35;7.40;99.90
52044;DHT22;38053;53.100;6.078;2023-12-20T11:43:51;7.40;99.90
52044;DHT22;38053;53.100;6.078;2023-12-20T11:46:31;7.40;99.90
52044;DHT22;38053;53.100;6.078;2023-12-20T12:00:49;7.40;99.90
52044;DHT22;38053;53.100;6.078;2023-12-20T12:03:15;7.40;99.90
52044;DHT22;38053;53.100;6.078;2023-12-20T12:05:41;7.40;99.90
52044;DHT22;38053;53.100;6.078;2023-12-20T12:08:14;7.40;99.90
52044;DHT22;38053;53.100;6.078;2023-12-20T12:10:56;7.40;99.90
52044;DHT22;38053;53.100;6.078;2023-12-20T12:13:25;7.30;99.90
52044;DHT22;38053;53.100;6.078;2023-12-20T12:16:01;7.30;99.90
52044;DHT22;38053;53.100;6.078;2023-12-20T12:18:27;7.30;99.90
52044;DHT22;38053;53.100;6.078;2023-12-20T12:32:10;7.30;99.90
52044;DHT22;38053;53.100;6.078;2023-12-20T12:35:12;7.20;99.90
52044;DHT22;38053;53.100;6.078;2023-12-20T12:41:20;7.20;99.90
52044;DHT22;38053;53.100;6.078;2023-12-20T12:47:25;7.00;99.90
52044;DHT22;38053;53.100;6.078;2023-12-20T12:50:17;6.90;99.90
52044;DHT22;38053;53.100;6.078;2023-12-20T12:56:13;6.70;99.90
52044;DHT22;38053;53.100;6.078;2023-12-20T12:58:42;6.60;99.90
52044;DHT22;38053;53.100;6.078;2023-12-20T13:04:17;6.50;99.90
52044;DHT22;38053;53.100;6.078;2023-12-20T13:06:54;6.40;99.90
52044;DHT22;38053;53.100;6.078;2023-12-20T13:09:20;6.30;99.90
52044;DHT22;38053;53.100;6.078;2023-12-20T13:12:07;6.30;99.90
52044;DHT22;38053;53.100;6.078;2023-12-20T13:22:52;6.20;99.90
52044;DHT22;38053;53.100;6.078;2023-12-20T13:29:25;6.20;99.90
52044;DHT22;38053;53.100;6.078;2023-12-20T13:36:13;6.00;99.90
52044;DHT22;38053;53.100;6.078;2023-12-20T13:38:54;6.00;99.90
52044;DHT22;38053;53.100;6.078;2023-12-20T13:56:18;6.00;99.90
52044;DHT22;38053;53.100;6.078;2023-12-20T13:58:57;6.00;99.90
52044;DHT22;38053;53.100;6.078;2023-12-20T14:01:48;6.10;99.90
52044;DHT22;38053;53.100;6.078;2023-12-20T14:11:32;6.00;99.90
52044;DHT22;38053;53.100;6.078;2023-12-20T14:21:09;6.00;99.90
52044;DHT22;38053;53.100;6.078;2023-12-20T14:31:20;6.10;99.90
52044;DHT22;38053;53.100;6.078;2023-12-20T14:34:38;6.10;99.90
52044;DHT22;38053;53.100;6.078;2023-12-20T14:37:27;6.00;99.90
52044;DHT22;38053;53.100;6.078;2023-12-20T14:44:11;6.10;99.90
52044;DHT22;38053;53.100;6.078;2023-12-20T14:54:40;6.10;99.90
52044;DHT22;38053;53.100;6.078;2023-12-20T14:57:15;6.10;99.90
52044;DHT22;38053;53.100;6.078;2023-12-20T14:59:46;6.10;99.90
52044;DHT22;38053;53.100;6.078;2023-12-20T15:02:15;6.10;99.90
52044;DHT22;38053;53.100;6.078;2023-12-20T15:04:41;6.10;99.90
52044;DHT22;38053;53.100;6.078;2023-12-20T15:07:06;6.10;99.90
52044;DHT22;38053;53.100;6.078;2023-12-20T15:09:32;6.10;99.90
52044;DHT22;38053;53.100;6.078;2023-12-20T15:11:58;6.20;99.90
52044;DHT22;38053;53.100;6.078;2023-12-20T15:21:57;6.20;99.90
52044;DHT22;38053;53.100;6.078;2023-12-20T15:24:25;6.30;99.90
52044;DHT22;38053;53.100;6.078;2023-12-20T15:27:50;6.40;99.90
52044;DHT22;38053;53.100;6.078;2023-12-20T15:30:22;6.50;99.90
52044;DHT22;38053;53.100;6.078;2023-12-20T15:40:03;6.70;99.90
52044;DHT22;38053;53.100;6.078;2023-12-20T15:42:29;6.80;99.90
52044;DHT22;38053;53.100;6.078;2023-12-20T15:45:01;6.80;99.90
52044;DHT22;38053;53.100;6.078;2023-12-20T15:47:27;6.80;99.90
52044;DHT22;38053;53.100;6.078;2023-12-20T15:49:59;6.70;99.90
52044;DHT22;38053;53.100;6.078;2023-12-20T15:56:27;6.70;99.90
52044;DHT22;38053;53.100;6.078;2023-12-20T15:59:05;6.60;99.90
52044;DHT22;38053;53.100;6.078;2023-12-20T16:11:08;6.60;99.90
52044;DHT22;38053;53.100;6.078;2023-12-20T16:13:33;6.70;99.90
52044;DHT22;38053;53.100;6.078;2023-12-20T16:16:03;6.70;99.90
52044;DHT22;38053;53.100;6.078;2023-12-20T16:18:35;6.70;99.90
52044;DHT22;38053;53.100;6.078;2023-12-20T16:21:07;6.80;99.90
52044;DHT22;38053;53.100;6.078;2023-12-20T16:33:52;6.90;99.90
52044;DHT22;38053;53.100;6.078;2023-12-20T16:43:05;7.00;99.90
52044;DHT22;38053;53.100;6.078;2023-12-20T16:45:34;7.00;99.90
52044;DHT22;38053;53.100;6.078;2023-12-20T16:48:02;7.00;99.90
52044;DHT22;38053;53.100;6.078;2023-12-20T16:54:38;7.00;99.90
52044;DHT22;38053;53.100;6.078;2023-12-20T16:57:04;7.10;99.90
52044;DHT22;38053;53.100;6.078;2023-12-20T17:02:05;7.10;99.90
52044;DHT22;38053;53.100;6.078;2023-12-20T17:04:34;7.10;99.90
52044;DHT22;38053;53.100;6.078;2023-12-20T17:10:34;7.10;99.90
52044;DHT22;38053;53.100;6.078;2023-12-20T17:13:00;7.10;99.90
52044;DHT22;38053;53.100;6.078;2023-12-20T17:15:29;7.10;99.90
52044;DHT22;38053;53.100;6.078;2023-12-20T17:17:58;7.10;99.90
52044;DHT22;38053;53.100;6.078;2023-12-20T17:20:26;7.10;99.90
52044;DHT22;38053;53.100;6.078;2023-12-20T17:22:59;7.10;99.90
52044;DHT22;38053;53.100;6.078;2023-12-20T17:25:28;7.10;99.90
52044;DHT22;38053;53.100;6.078;2023-12-20T17:27:58;7.20;99.90
52044;DHT22;38053;53.100;6.078;2023-12-20T17:30:30;7.20;99.90
52044;DHT22;38053;53.100;6.078;2023-12-20T17:33:09;7.20;99.90
52044;DHT22;38053;53.100;6.078;2023-12-20T17:39:16;7.20;99.90
52044;DHT22;38053;53.100;6.078;2023-12-20T17:41:42;7.30;99.90
52044;DHT22;38053;53.100;6.078;2023-12-20T17:44:12;7.20;99.90
52044;DHT22;38053;53.100;6.078;2023-12-20T17:46:40;7.30;99.90
52044;DHT22;38053;53.100;6.078;2023-12-20T17:49:24;7.30;99.90
52044;DHT22;38053;53.100;6.078;2023-12-20T17:52:04;7.30;99.90
52044;DHT22;38053;53.100;6.078;2023-12-20T17:54:34;7.40;99.90
52044;DHT22;38053;53.100;6.078;2023-12-20T17:57:00;7.40;99.90
52044;DHT22;38053;53.100;6.078;2023-12-20T17:59:26;7.40;99.90
52044;DHT22;38053;53.100;6.078;2023-12-20T18:02:01;7.40;99.90
52044;DHT22;38053;53.100;6.078;2023-12-20T18:04:27;7.50;99.90
52044;DHT22;38053;53.100;6.078;2023-12-20T18:06:53;7.50;99.90
52044;DHT22;38053;53.100;6.078;2023-12-20T18:09:19;7.50;99.90
52044;DHT22;38053;53.100;6.078;2023-12-20T18:11:53;7.50;99.90
52044;DHT22;38053;53.100;6.078;2023-12-20T18:14:24;7.50;99.90
52044;DHT22;38053;53.100;6.078;2023-12-20T18:20:31;7.60;99.90
52044;DHT22;38053;53.100;6.078;2023-12-20T18:22:57;7.60;99.90
52044;DHT22;38053;53.100;6.078;2023-12-20T18:25:23;7.60;99.90
52044;DHT22;38053;53.100;6.078;2023-12-20T18:27:48;7.60;99.90
52044;DHT22;38053;53.100;6.078;2023-12-20T18:30:14;7.70;99.90
52044;DHT22;38053;53.100;6.078;2023-12-20T18:32:40;7.70;99.90
52044;DHT22;38053;53.100;6.078;2023-12-20T18:35:08;7.70;99.90
52044;DHT22;38053;53.100;6.078;2023-12-20T18:53:17;7.90;99.90
52044;DHT22;38053;53.100;6.078;2023-12-20T19:07:37;8.00;99.90
52044;DHT22;38053;53.100;6.078;2023-12-20T19:25:59;8.00;99.90
52044;DHT22;38053;53.100;6.078;2023-12-20T19:29:32;8.10;99.90
52044;DHT22;38053;53.100;6.078;2023-12-20T19:51:34;8.20;99.90
52044;DHT22;38053;53.100;6.078;2023-12-20T19:59:07;8.20;99.90
52044;DHT22;38053;53.100;6.078;2023-12-20T21:14:22;8.50;99.90
52044;DHT22;38053;53.100;6.078;2023-12-20T21:25:15;8.50;99.90
52044;DHT22;38053;53.100;6.078;2023-12-20T21:40:09;8.70;99.90
52044;DHT22;38053;53.100;6.078;2023-12-20T22:46:20;8.70;99.90
52044;DHT22;38053;53.100;6.078;2023-12-20T22:49:11;8.60;99.90
52044;DHT22;38053;53.100;6.078;2023-12-20T22:51:37;8.70;99.90
52044;DHT22;38053;53.100;6.078;2023-12-20T22:54:03;8.60;99.90
52044;DHT22;38053;53.100;6.078;2023-12-20T22:56:33;8.70;99.90
52044;DHT22;38053;53.100;6.078;2023-12-20T22:59:34;8.70;99.90
52044;DHT22;38053;53.100;6.078;2023-12-20T23:02:11;8.70;99.90
52044;DHT22;38053;53.100;6.078;2023-12-20T23:04:39;8.70;99.90
52044;DHT22;38053;53.100;6.078;2023-12-20T23:07:06;8.70;99.90
52044;DHT22;38053;53.100;6.078;2023-12-20T23:09:32;8.70;99.90
52044;DHT22;38053;53.100;6.078;2023-12-20T23:12:00;8.80;99.90
52044;DHT22;38053;53.100;6.078;2023-12-20T23:14:26;8.80;99.90
52044;DHT22;38053;53.100;6.078;2023-12-20T23:17:07;8.70;99.90
52044;DHT22;38053;53.100;6.078;2023-12-20T23:23:19;8.80;99.90
52044;DHT22;38053;53.100;6.078;2023-12-20T23:26:04;8.80;99.90
52044;DHT22;38053;53.100;6.078;2023-12-20T23:32:23;8.80;99.90
52044;DHT22;38053;53.100;6.078;2023-12-20T23:35:00;8.80;99.90
52044;DHT22;38053;53.100;6.078;2023-12-20T23:38:01;8.80;99.90
52044;DHT22;38053;53.100;6.078;2023-12-20T23:40:50;8.80;99.90
52044;DHT22;38053;53.100;6.078;2023-12-20T23:44:13;8.90;99.90
52044;DHT22;38053;53.100;6.078;2023-12-20T23:50:07;8.80;99.90
52044;DHT22;38053;53.100;6.078;2023-12-20T23:52:53;8.90;99.90
52044;DHT22;38053;53.100;6.078;2023-12-20T23:56:08;8.90;99.90
52044;DHT22;38053;53.100;6.078;2023-12-20T23:58:36;8.90;99.90
